sensor_id;sensor_type;location;lat;lon;timestamp;pressure;altitude;pressure_sealevel;temperature;humidity
79639;BME280;69114;49.108;8.280;2024-02-26T00:01:51;98387.06;;;6.85;100.00
79639;BME280;69114;49.108;8.280;2024-02-26T00:04:17;98394.22;;;6.86;100.00
79639;BME280;69114;49.108;8.280;2024-02-26T00:06:43;98393.50;;;6.98;100.00
79639;BME280;69114;49.108;8.280;2024-02-26T00:09:09;98390.09;;;6.92;100.00
79639;BME280;69114;49.108;8.280;2024-02-26T00:11:35;98378.72;;;6.94;99.82
79639;BME280;69114;49.108;8.280;2024-02-26T00:14:01;98375.06;;;7.02;100.00
79639;BME280;69114;49.108;8.280;2024-02-26T00:16:26;98373.38;;;6.89;100.00
79639;BME280;69114;49.108;8.280;2024-02-26T00:18:52;98378.78;;;6.85;97.42
79639;BME280;69114;49.108;8.280;2024-02-26T00:21:17;98370.31;;;6.82;96.49
79639;BME280;69114;49.108;8.280;2024-02-26T00:23:43;98380.38;;;6.86;98.23
79639;BME280;69114;49.108;8.280;2024-02-26T00:26:08;98397.78;;;6.87;100.00
79639;BME280;69114;49.108;8.280;2024-02-26T00:28:35;98396.34;;;6.89;100.00
79639;BME280;69114;49.108;8.280;2024-02-26T00:31:01;98394.78;;;7.01;100.00
79639;BME280;69114;49.108;8.280;2024-02-26T00:33:26;98403.81;;;6.89;100.00
79639;BME280;69114;49.108;8.280;2024-02-26T00:35:51;98392.22;;;6.96;100.00
79639;BME280;69114;49.108;8.280;2024-02-26T00:38:17;98405.91;;;6.92;100.00
79639;BME280;69114;49.108;8.280;2024-02-26T00:40:42;98413.94;;;6.85;98.24
79639;BME280;69114;49.108;8.280;2024-02-26T00:43:07;98409.28;;;6.98;95.03
79639;BME280;69114;49.108;8.280;2024-02-26T00:45:33;98405.00;;;7.09;98.72
79639;BME280;69114;49.108;8.280;2024-02-26T00:47:58;98414.56;;;7.11;99.88
79639;BME280;69114;49.108;8.280;2024-02-26T00:50:26;98410.25;;;7.02;97.93
79639;BME280;69114;49.108;8.280;2024-02-26T00:52:51;98419.28;;;6.90;100.00
79639;BME280;69114;49.108;8.280;2024-02-26T00:55:17;98425.84;;;6.77;100.00
79639;BME280;69114;49.108;8.280;2024-02-26T00:57:42;98435.19;;;6.93;100.00
79639;BME280;69114;49.108;8.280;2024-02-26T01:00:08;98427.84;;;6.97;100.00
79639;BME280;69114;49.108;8.280;2024-02-26T01:02:36;98421.09;;;6.86;100.00
79639;BME280;69114;49.108;8.280;2024-02-26T01:05:02;98411.25;;;6.67;100.00
79639;BME280;69114;49.108;8.280;2024-02-26T01:07:28;98415.06;;;6.54;100.00
79639;BME280;69114;49.108;8.280;2024-02-26T01:09:53;98416.22;;;6.53;100.00
79639;BME280;69114;49.108;8.280;2024-02-26T01:12:18;98425.00;;;6.55;100.00
79639;BME280;69114;49.108;8.280;2024-02-26T01:14:44;98417.16;;;6.57;100.00
79639;BME280;69114;49.108;8.280;2024-02-26T01:17:09;98424.69;;;6.48;100.00
79639;BME280;69114;49.108;8.280;2024-02-26T01:19:34;98417.00;;;6.54;100.00
79639;BME280;69114;49.108;8.280;2024-02-26T01:22:00;98426.22;;;6.37;100.00
79639;BME280;69114;49.108;8.280;2024-02-26T01:24:25;98427.50;;;6.31;100.00
79639;BME280;69114;49.108;8.280;2024-02-26T01:26:50;98424.75;;;6.31;100.00
79639;BME280;69114;49.108;8.280;2024-02-26T01:29:16;98444.47;;;6.21;100.00
79639;BME280;69114;49.108;8.280;2024-02-26T01:31:41;98443.47;;;6.25;100.00
79639;BME280;69114;49.108;8.280;2024-02-26T01:34:06;98446.06;;;6.22;100.00
79639;BME280;69114;49.108;8.280;2024-02-26T01:36:32;98432.13;;;6.18;100.00
79639;BME280;69114;49.108;8.280;2024-02-26T01:38:57;98438.47;;;6.19;100.00
79639;BME280;69114;49.108;8.280;2024-02-26T01:41:22;98442.50;;;6.21;100.00
79639;BME280;69114;49.108;8.280;2024-02-26T01:43:48;98441.03;;;6.24;100.00
79639;BME280;69114;49.108;8.280;2024-02-26T01:46:14;98442.63;;;6.42;100.00
79639;BME280;69114;49.108;8.280;2024-02-26T01:48:43;98450.56;;;6.44;100.00
79639;BME280;69114;49.108;8.280;2024-02-26T01:51:10;98446.34;;;6.46;100.00
79639;BME280;69114;49.108;8.280;2024-02-26T01:53:37;98440.16;;;6.40;100.00
79639;BME280;69114;49.108;8.280;2024-02-26T01:56:03;98445.25;;;6.30;100.00
79639;BME280;69114;49.108;8.280;2024-02-26T01:58:29;98445.41;;;6.33;100.00
79639;BME280;69114;49.108;8.280;2024-02-26T02:00:56;98454.03;;;6.32;100.00
79639;BME280;69114;49.108;8.280;2024-02-26T02:03:22;98459.09;;;6.21;100.00
79639;BME280;69114;49.108;8.280;2024-02-26T02:05:47;98468.25;;;6.13;100.00
79639;BME280;69114;49.108;8.280;2024-02-26T02:08:13;98467.56;;;6.07;100.00
79639;BME280;69114;49.108;8.280;2024-02-26T02:10:40;98467.44;;;6.12;100.00
79639;BME280;69114;49.108;8.280;2024-02-26T02:13:06;98466.81;;;5.98;100.00
79639;BME280;69114;49.108;8.280;2024-02-26T02:15:32;98463.69;;;5.91;100.00
79639;BME280;69114;49.108;8.280;2024-02-26T02:17:57;98473.28;;;6.02;100.00
79639;BME280;69114;49.108;8.280;2024-02-26T02:20:33;98466.47;;;6.08;100.00
79639;BME280;69114;49.108;8.280;2024-02-26T02:22:59;98470.38;;;5.99;100.00
79639;BME280;69114;49.108;8.280;2024-02-26T02:25:24;98473.44;;;6.06;100.00
79639;BME280;69114;49.108;8.280;2024-02-26T02:27:50;98470.47;;;6.28;100.00
79639;BME280;69114;49.108;8.280;2024-02-26T02:30:16;98469.47;;;6.41;100.00
79639;BME280;69114;49.108;8.280;2024-02-26T02:32:42;98468.16;;;6.39;100.00
79639;BME280;69114;49.108;8.280;2024-02-26T02:35:08;98468.97;;;6.31;100.00
79639;BME280;69114;49.108;8.280;2024-02-26T02:37:33;98472.25;;;6.33;100.00
79639;BME280;69114;49.108;8.280;2024-02-26T02:39:59;98468.19;;;6.22;100.00
79639;BME280;69114;49.108;8.280;2024-02-26T02:42:25;98475.53;;;6.18;100.00
79639;BME280;69114;49.108;8.280;2024-02-26T02:44:51;98465.31;;;6.18;100.00
79639;BME280;69114;49.108;8.280;2024-02-26T02:47:16;98464.13;;;6.28;100.00
79639;BME280;69114;49.108;8.280;2024-02-26T02:49:41;98469.97;;;6.35;100.00
79639;BME280;69114;49.108;8.280;2024-02-26T02:52:07;98469.94;;;6.44;100.00
79639;BME280;69114;49.108;8.280;2024-02-26T02:54:32;98466.34;;;6.43;100.00
79639;BME280;69114;49.108;8.280;2024-02-26T02:56:58;98453.53;;;6.30;100.00
79639;BME280;69114;49.108;8.280;2024-02-26T02:59:23;98452.91;;;6.33;100.00
79639;BME280;69114;49.108;8.280;2024-02-26T03:01:48;98452.59;;;6.17;100.00
79639;BME280;69114;49.108;8.280;2024-02-26T03:04:14;98462.72;;;5.96;100.00
79639;BME280;69114;49.108;8.280;2024-02-26T03:06:39;98448.09;;;5.95;100.00
79639;BME280;69114;49.108;8.280;2024-02-26T03:09:05;98441.56;;;5.91;100.00
79639;BME280;69114;49.108;8.280;2024-02-26T03:11:30;98447.44;;;5.89;100.00
79639;BME280;69114;49.108;8.280;2024-02-26T03:13:55;98434.94;;;5.92;100.00
79639;BME280;69114;49.108;8.280;2024-02-26T03:16:21;98426.66;;;5.92;100.00
79639;BME280;69114;49.108;8.280;2024-02-26T03:18:46;98431.66;;;5.90;100.00
79639;BME280;69114;49.108;8.280;2024-02-26T03:21:11;98431.97;;;5.88;100.00
79639;BME280;69114;49.108;8.280;2024-02-26T03:23:37;98430.34;;;5.87;100.00
79639;BME280;69114;49.108;8.280;2024-02-26T03:26:05;98434.59;;;5.85;100.00
79639;BME280;69114;49.108;8.280;2024-02-26T03:28:31;98435.72;;;5.84;100.00
79639;BME280;69114;49.108;8.280;2024-02-26T03:30:59;98418.34;;;5.92;100.00
79639;BME280;69114;49.108;8.280;2024-02-26T03:33:24;98414.13;;;5.95;100.00
79639;BME280;69114;49.108;8.280;2024-02-26T03:35:50;98408.28;;;5.96;100.00
79639;BME280;69114;49.108;8.280;2024-02-26T03:38:15;98396.41;;;5.96;100.00
79639;BME280;69114;49.108;8.280;2024-02-26T03:40:41;98398.00;;;5.88;100.00
79639;BME280;69114;49.108;8.280;2024-02-26T03:43:06;98403.09;;;5.95;100.00
79639;BME280;69114;49.108;8.280;2024-02-26T03:45:32;98388.25;;;5.90;100.00
79639;BME280;69114;49.108;8.280;2024-02-26T03:47:58;98398.38;;;5.95;100.00
79639;BME280;69114;49.108;8.280;2024-02-26T03:50:23;98394.78;;;5.95;100.00
79639;BME280;69114;49.108;8.280;2024-02-26T03:52:49;98395.25;;;5.88;100.00
79639;BME280;69114;49.108;8.280;2024-02-26T03:55:14;98385.84;;;5.89;100.00
79639;BME280;69114;49.108;8.280;2024-02-26T03:57:39;98386.84;;;5.76;100.00
79639;BME280;69114;49.108;8.280;2024-02-26T04:00:05;98380.97;;;5.77;100.00
79639;BME280;69114;49.108;8.280;2024-02-26T04:02:31;98381.31;;;5.84;100.00
79639;BME280;69114;49.108;8.280;2024-02-26T04:04:57;98381.47;;;5.79;100.00
79639;BME280;69114;49.108;8.280;2024-02-26T04:07:22;98380.97;;;5.86;100.00
79639;BME280;69114;49.108;8.280;2024-02-26T04:09:47;98377.06;;;5.87;100.00
79639;BME280;69114;49.108;8.280;2024-02-26T04:12:13;98374.63;;;5.85;100.00
79639;BME280;69114;49.108;8.280;2024-02-26T04:14:38;98373.31;;;5.83;100.00
79639;BME280;69114;49.108;8.280;2024-02-26T04:17:04;98370.56;;;5.83;100.00
79639;BME280;69114;49.108;8.280;2024-02-26T04:19:29;98371.38;;;5.83;100.00
79639;BME280;69114;49.108;8.280;2024-02-26T04:21:54;98377.22;;;5.82;100.00
79639;BME280;69114;49.108;8.280;2024-02-26T04:24:20;98387.63;;;5.85;100.00
79639;BME280;69114;49.108;8.280;2024-02-26T04:26:45;98381.50;;;5.71;100.00
79639;BME280;69114;49.108;8.280;2024-02-26T04:29:11;98386.00;;;5.84;100.00
79639;BME280;69114;49.108;8.280;2024-02-26T04:31:37;98388.09;;;5.87;100.00
79639;BME280;69114;49.108;8.280;2024-02-26T04:34:03;98385.69;;;5.77;100.00
79639;BME280;69114;49.108;8.280;2024-02-26T04:36:28;98393.00;;;5.81;100.00
79639;BME280;69114;49.108;8.280;2024-02-26T04:38:54;98399.81;;;5.84;100.00
79639;BME280;69114;49.108;8.280;2024-02-26T04:41:22;98391.84;;;5.82;100.00
79639;BME280;69114;49.108;8.280;2024-02-26T04:43:47;98395.94;;;5.85;100.00
79639;BME280;69114;49.108;8.280;2024-02-26T04:46:12;98408.59;;;5.86;100.00
79639;BME280;69114;49.108;8.280;2024-02-26T04:48:38;98400.31;;;5.86;100.00
79639;BME280;69114;49.108;8.280;2024-02-26T04:51:04;98401.91;;;5.87;100.00
79639;BME280;69114;49.108;8.280;2024-02-26T04:53:30;98404.03;;;5.90;100.00
79639;BME280;69114;49.108;8.280;2024-02-26T04:55:55;98402.75;;;5.79;100.00
79639;BME280;69114;49.108;8.280;2024-02-26T04:58:20;98411.53;;;5.81;100.00
79639;BME280;69114;49.108;8.280;2024-02-26T05:00:46;98406.66;;;5.78;100.00
79639;BME280;69114;49.108;8.280;2024-02-26T05:03:11;98407.47;;;5.70;100.00
79639;BME280;69114;49.108;8.280;2024-02-26T05:05:44;98409.75;;;5.76;100.00
79639;BME280;69114;49.108;8.280;2024-02-26T05:08:09;98415.63;;;5.75;100.00
79639;BME280;69114;49.108;8.280;2024-02-26T05:10:35;98415.09;;;5.73;100.00
79639;BME280;69114;49.108;8.280;2024-02-26T05:13:04;98412.50;;;5.76;100.00
79639;BME280;69114;49.108;8.280;2024-02-26T05:15:30;98415.91;;;5.73;100.00
79639;BME280;69114;49.108;8.280;2024-02-26T05:17:55;98425.50;;;5.76;100.00
79639;BME280;69114;49.108;8.280;2024-02-26T05:20:20;98425.81;;;5.74;100.00
79639;BME280;69114;49.108;8.280;2024-02-26T05:22:46;98426.66;;;5.66;100.00
79639;BME280;69114;49.108;8.280;2024-02-26T05:25:14;98434.44;;;5.64;100.00
79639;BME280;69114;49.108;8.280;2024-02-26T05:27:40;98430.72;;;5.69;100.00
79639;BME280;69114;49.108;8.280;2024-02-26T05:30:05;98438.00;;;5.73;100.00
79639;BME280;69114;49.108;8.280;2024-02-26T05:32:31;98434.78;;;5.71;100.00
79639;BME280;69114;49.108;8.280;2024-02-26T05:34:56;98434.59;;;5.76;100.00
79639;BME280;69114;49.108;8.280;2024-02-26T05:37:22;98438.19;;;5.77;100.00
79639;BME280;69114;49.108;8.280;2024-02-26T05:39:47;98445.66;;;5.85;100.00
79639;BME280;69114;49.108;8.280;2024-02-26T05:42:13;98444.00;;;5.84;100.00
79639;BME280;69114;49.108;8.280;2024-02-26T05:44:38;98450.03;;;5.86;100.00
79639;BME280;69114;49.108;8.280;2024-02-26T05:47:04;98447.28;;;5.86;100.00
79639;BME280;69114;49.108;8.280;2024-02-26T05:49:29;98458.16;;;5.82;100.00
79639;BME280;69114;49.108;8.280;2024-02-26T05:51:55;98450.50;;;5.88;100.00
79639;BME280;69114;49.108;8.280;2024-02-26T05:54:20;98460.59;;;5.84;100.00
79639;BME280;69114;49.108;8.280;2024-02-26T05:56:45;98456.69;;;6.02;100.00
79639;BME280;69114;49.108;8.280;2024-02-26T05:59:10;98450.88;;;5.95;100.00
79639;BME280;69114;49.108;8.280;2024-02-26T06:01:36;98450.88;;;5.95;100.00
79639;BME280;69114;49.108;8.280;2024-02-26T06:04:01;98460.59;;;6.01;100.00
79639;BME280;69114;49.108;8.280;2024-02-26T06:06:27;98457.69;;;5.98;100.00
79639;BME280;69114;49.108;8.280;2024-02-26T06:08:52;98467.78;;;5.94;100.00
79639;BME280;69114;49.108;8.280;2024-02-26T06:11:17;98470.03;;;5.83;100.00
79639;BME280;69114;49.108;8.280;2024-02-26T06:13:43;98470.34;;;5.90;100.00
79639;BME280;69114;49.108;8.280;2024-02-26T06:16:08;98475.25;;;5.93;100.00
79639;BME280;69114;49.108;8.280;2024-02-26T06:18:33;98481.59;;;5.94;100.00
79639;BME280;69114;49.108;8.280;2024-02-26T06:21:00;98476.88;;;5.94;100.00
79639;BME280;69114;49.108;8.280;2024-02-26T06:23:25;98482.72;;;6.01;100.00
79639;BME280;69114;49.108;8.280;2024-02-26T06:25:51;98492.78;;;5.97;100.00
79639;BME280;69114;49.108;8.280;2024-02-26T06:28:17;98492.47;;;5.90;100.00
79639;BME280;69114;49.108;8.280;2024-02-26T06:30:42;98496.38;;;5.89;100.00
79639;BME280;69114;49.108;8.280;2024-02-26T06:33:08;98499.59;;;5.91;100.00
79639;BME280;69114;49.108;8.280;2024-02-26T06:35:33;98501.25;;;6.01;100.00
79639;BME280;69114;49.108;8.280;2024-02-26T06:37:59;98498.16;;;6.02;100.00
79639;BME280;69114;49.108;8.280;2024-02-26T06:40:24;98495.88;;;6.13;100.00
79639;BME280;69114;49.108;8.280;2024-02-26T06:42:50;98507.25;;;6.11;100.00
79639;BME280;69114;49.108;8.280;2024-02-26T06:45:16;98502.84;;;6.19;100.00
79639;BME280;69114;49.108;8.280;2024-02-26T06:47:41;98500.72;;;6.25;100.00
79639;BME280;69114;49.108;8.280;2024-02-26T06:50:08;98508.84;;;6.21;100.00
79639;BME280;69114;49.108;8.280;2024-02-26T06:52:33;98513.59;;;6.12;100.00
79639;BME280;69114;49.108;8.280;2024-02-26T06:54:59;98507.88;;;6.17;100.00
79639;BME280;69114;49.108;8.280;2024-02-26T06:59:52;98511.78;;;6.16;100.00
79639;BME280;69114;49.108;8.280;2024-02-26T07:02:17;98515.88;;;6.19;100.00
79639;BME280;69114;49.108;8.280;2024-02-26T07:04:43;98528.38;;;6.16;100.00
79639;BME280;69114;49.108;8.280;2024-02-26T07:07:08;98534.88;;;6.20;100.00
79639;BME280;69114;49.108;8.280;2024-02-26T07:09:34;98524.00;;;6.24;100.00
79639;BME280;69114;49.108;8.280;2024-02-26T07:11:59;98522.81;;;6.33;100.00
79639;BME280;69114;49.108;8.280;2024-02-26T07:14:24;98535.38;;;6.13;100.00
79639;BME280;69114;49.108;8.280;2024-02-26T07:16:50;98537.00;;;6.14;100.00
79639;BME280;69114;49.108;8.280;2024-02-26T07:19:16;98528.88;;;6.27;100.00
79639;BME280;69114;49.108;8.280;2024-02-26T07:21:41;98535.50;;;6.26;100.00
79639;BME280;69114;49.108;8.280;2024-02-26T07:24:06;98534.88;;;6.29;100.00
79639;BME280;69114;49.108;8.280;2024-02-26T07:26:32;98531.47;;;6.32;100.00
79639;BME280;69114;49.108;8.280;2024-02-26T07:28:57;98527.56;;;6.33;100.00
79639;BME280;69114;49.108;8.280;2024-02-26T07:31:23;98543.00;;;6.34;100.00
79639;BME280;69114;49.108;8.280;2024-02-26T07:33:48;98536.81;;;6.37;100.00
79639;BME280;69114;49.108;8.280;2024-02-26T07:36:14;98546.72;;;6.38;100.00
79639;BME280;69114;49.108;8.280;2024-02-26T07:38:39;98547.34;;;6.52;100.00
79639;BME280;69114;49.108;8.280;2024-02-26T07:41:04;98554.16;;;6.55;100.00
79639;BME280;69114;49.108;8.280;2024-02-26T07:43:30;98540.00;;;6.65;100.00
79639;BME280;69114;49.108;8.280;2024-02-26T07:45:55;98541.41;;;6.80;100.00
79639;BME280;69114;49.108;8.280;2024-02-26T07:48:20;98547.41;;;6.82;100.00
79639;BME280;69114;49.108;8.280;2024-02-26T07:50:46;98543.22;;;6.76;100.00
79639;BME280;69114;49.108;8.280;2024-02-26T07:53:11;98540.47;;;6.76;100.00
79639;BME280;69114;49.108;8.280;2024-02-26T07:55:37;98547.91;;;6.84;100.00
79639;BME280;69114;49.108;8.280;2024-02-26T07:58:02;98556.03;;;6.89;100.00
79639;BME280;69114;49.108;8.280;2024-02-26T08:00:28;98554.06;;;6.98;100.00
79639;BME280;69114;49.108;8.280;2024-02-26T08:02:53;98548.16;;;7.08;100.00
79639;BME280;69114;49.108;8.280;2024-02-26T08:05:19;98551.50;;;7.23;100.00
79639;BME280;69114;49.108;8.280;2024-02-26T08:07:44;98542.06;;;7.15;100.00
79639;BME280;69114;49.108;8.280;2024-02-26T08:10:09;98540.06;;;7.24;100.00
79639;BME280;69114;49.108;8.280;2024-02-26T08:12:36;98553.47;;;7.22;100.00
79639;BME280;69114;49.108;8.280;2024-02-26T08:15:02;98546.19;;;7.09;100.00
79639;BME280;69114;49.108;8.280;2024-02-26T08:17:27;98543.72;;;7.07;100.00
79639;BME280;69114;49.108;8.280;2024-02-26T08:19:53;98551.38;;;7.10;100.00
79639;BME280;69114;49.108;8.280;2024-02-26T08:22:18;98546.16;;;7.17;100.00
79639;BME280;69114;49.108;8.280;2024-02-26T08:24:44;98549.88;;;7.22;100.00
79639;BME280;69114;49.108;8.280;2024-02-26T08:27:09;98551.13;;;7.33;100.00
79639;BME280;69114;49.108;8.280;2024-02-26T08:29:35;98553.28;;;7.48;100.00
79639;BME280;69114;49.108;8.280;2024-02-26T08:32:00;98563.91;;;7.46;100.00
79639;BME280;69114;49.108;8.280;2024-02-26T08:34:26;98562.47;;;7.40;100.00
79639;BME280;69114;49.108;8.280;2024-02-26T08:36:51;98565.53;;;7.47;100.00
79639;BME280;69114;49.108;8.280;2024-02-26T08:39:17;98559.34;;;7.71;100.00
79639;BME280;69114;49.108;8.280;2024-02-26T08:41:43;98566.44;;;7.81;100.00
79639;BME280;69114;49.108;8.280;2024-02-26T08:44:09;98569.47;;;7.88;100.00
79639;BME280;69114;49.108;8.280;2024-02-26T08:46:34;98576.19;;;7.87;100.00
79639;BME280;69114;49.108;8.280;2024-02-26T08:49:00;98581.53;;;7.92;100.00
79639;BME280;69114;49.108;8.280;2024-02-26T08:51:25;98576.06;;;8.04;100.00
79639;BME280;69114;49.108;8.280;2024-02-26T08:53:50;98573.94;;;8.01;100.00
79639;BME280;69114;49.108;8.280;2024-02-26T08:56:16;98574.91;;;8.05;100.00
79639;BME280;69114;49.108;8.280;2024-02-26T09:01:19;98578.28;;;7.90;100.00
79639;BME280;69114;49.108;8.280;2024-02-26T09:03:45;98578.84;;;8.04;100.00
79639;BME280;69114;49.108;8.280;2024-02-26T09:06:10;98596.34;;;7.96;100.00
79639;BME280;69114;49.108;8.280;2024-02-26T09:08:37;98584.34;;;8.25;100.00
79639;BME280;69114;49.108;8.280;2024-02-26T09:11:02;98599.53;;;8.28;100.00
79639;BME280;69114;49.108;8.280;2024-02-26T09:13:28;98590.16;;;8.41;100.00
79639;BME280;69114;49.108;8.280;2024-02-26T09:15:54;98596.50;;;8.41;100.00
79639;BME280;69114;49.108;8.280;2024-02-26T09:18:20;98587.47;;;8.65;100.00
79639;BME280;69114;49.108;8.280;2024-02-26T09:20:45;98582.28;;;8.76;100.00
79639;BME280;69114;49.108;8.280;2024-02-26T09:23:10;98584.91;;;8.72;100.00
79639;BME280;69114;49.108;8.280;2024-02-26T09:25:36;98581.03;;;8.86;100.00
79639;BME280;69114;49.108;8.280;2024-02-26T09:28:01;98587.97;;;8.92;100.00
79639;BME280;69114;49.108;8.280;2024-02-26T09:30:26;98588.81;;;9.05;100.00
79639;BME280;69114;49.108;8.280;2024-02-26T09:32:52;98592.63;;;9.00;100.00
79639;BME280;69114;49.108;8.280;2024-02-26T09:35:17;98586.41;;;9.03;100.00
79639;BME280;69114;49.108;8.280;2024-02-26T09:37:42;98584.97;;;8.97;100.00
79639;BME280;69114;49.108;8.280;2024-02-26T09:40:10;98589.84;;;8.88;100.00
79639;BME280;69114;49.108;8.280;2024-02-26T09:42:43;98593.69;;;9.08;100.00
79639;BME280;69114;49.108;8.280;2024-02-26T09:45:12;98583.16;;;9.26;100.00
79639;BME280;69114;49.108;8.280;2024-02-26T09:47:42;98590.66;;;9.01;100.00
79639;BME280;69114;49.108;8.280;2024-02-26T09:50:09;98587.31;;;9.19;100.00
79639;BME280;69114;49.108;8.280;2024-02-26T09:52:37;98586.41;;;9.28;100.00
79639;BME280;69114;49.108;8.280;2024-02-26T09:55:04;98600.91;;;9.45;100.00
79639;BME280;69114;49.108;8.280;2024-02-26T09:57:30;98601.00;;;9.61;100.00
79639;BME280;69114;49.108;8.280;2024-02-26T09:59:59;98606.34;;;9.79;100.00
79639;BME280;69114;49.108;8.280;2024-02-26T10:02:27;98601.94;;;9.65;100.00
79639;BME280;69114;49.108;8.280;2024-02-26T10:04:54;98606.44;;;9.82;100.00
79639;BME280;69114;49.108;8.280;2024-02-26T10:07:21;98607.47;;;9.90;100.00
79639;BME280;69114;49.108;8.280;2024-02-26T10:09:47;98596.34;;;9.90;100.00
79639;BME280;69114;49.108;8.280;2024-02-26T10:12:14;98602.38;;;9.80;100.00
79639;BME280;69114;49.108;8.280;2024-02-26T10:14:41;98603.19;;;9.80;100.00
79639;BME280;69114;49.108;8.280;2024-02-26T10:17:10;98607.72;;;9.72;100.00
79639;BME280;69114;49.108;8.280;2024-02-26T10:19:35;98610.94;;;10.11;100.00
79639;BME280;69114;49.108;8.280;2024-02-26T10:22:01;98612.31;;;10.05;100.00
79639;BME280;69114;49.108;8.280;2024-02-26T10:24:29;98610.31;;;10.30;100.00
79639;BME280;69114;49.108;8.280;2024-02-26T10:26:55;98617.38;;;10.40;100.00
79639;BME280;69114;49.108;8.280;2024-02-26T10:29:21;98622.31;;;10.46;100.00
79639;BME280;69114;49.108;8.280;2024-02-26T10:31:47;98630.69;;;10.34;100.00
79639;BME280;69114;49.108;8.280;2024-02-26T10:34:14;98630.44;;;10.39;100.00
79639;BME280;69114;49.108;8.280;2024-02-26T10:36:39;98642.16;;;10.45;100.00
79639;BME280;69114;49.108;8.280;2024-02-26T10:39:06;98643.47;;;10.63;100.00
79639;BME280;69114;49.108;8.280;2024-02-26T10:41:35;98641.91;;;10.50;100.00
79639;BME280;69114;49.108;8.280;2024-02-26T10:44:10;98643.94;;;10.65;100.00
79639;BME280;69114;49.108;8.280;2024-02-26T10:46:37;98636.94;;;10.71;100.00
79639;BME280;69114;49.108;8.280;2024-02-26T10:49:04;98637.06;;;10.75;100.00
79639;BME280;69114;49.108;8.280;2024-02-26T10:51:30;98631.22;;;11.08;100.00
79639;BME280;69114;49.108;8.280;2024-02-26T10:53:58;98633.09;;;11.04;100.00
79639;BME280;69114;49.108;8.280;2024-02-26T10:56:28;98637.16;;;11.22;100.00
79639;BME280;69114;49.108;8.280;2024-02-26T10:58:58;98641.13;;;11.37;100.00
79639;BME280;69114;49.108;8.280;2024-02-26T11:01:24;98639.94;;;11.22;100.00
79639;BME280;69114;49.108;8.280;2024-02-26T11:03:51;98646.97;;;11.48;100.00
79639;BME280;69114;49.108;8.280;2024-02-26T11:06:18;98654.69;;;11.39;100.00
79639;BME280;69114;49.108;8.280;2024-02-26T11:08:48;98649.56;;;11.72;100.00
79639;BME280;69114;49.108;8.280;2024-02-26T11:11:14;98656.88;;;11.93;100.00
79639;BME280;69114;49.108;8.280;2024-02-26T11:13:42;98657.44;;;11.83;100.00
79639;BME280;69114;49.108;8.280;2024-02-26T11:16:11;98657.13;;;12.03;100.00
79639;BME280;69114;49.108;8.280;2024-02-26T11:18:38;98659.81;;;12.51;100.00
79639;BME280;69114;49.108;8.280;2024-02-26T11:21:05;98653.63;;;12.80;100.00
79639;BME280;69114;49.108;8.280;2024-02-26T11:23:33;98643.72;;;12.83;100.00
79639;BME280;69114;49.108;8.280;2024-02-26T11:26:02;98657.31;;;12.85;100.00
79639;BME280;69114;49.108;8.280;2024-02-26T11:28:29;98650.69;;;12.73;100.00
79639;BME280;69114;49.108;8.280;2024-02-26T11:30:59;98649.66;;;12.62;100.00
79639;BME280;69114;49.108;8.280;2024-02-26T11:33:25;98652.88;;;13.03;100.00
79639;BME280;69114;49.108;8.280;2024-02-26T11:35:50;98646.75;;;13.17;100.00
79639;BME280;69114;49.108;8.280;2024-02-26T11:38:24;98639.91;;;13.33;100.00
79639;BME280;69114;49.108;8.280;2024-02-26T11:40:51;98645.06;;;13.54;100.00
79639;BME280;69114;49.108;8.280;2024-02-26T11:43:18;98635.13;;;13.34;100.00
79639;BME280;69114;49.108;8.280;2024-02-26T11:48:13;98643.97;;;13.59;100.00
79639;BME280;69114;49.108;8.280;2024-02-26T11:50:40;98642.88;;;14.73;100.00
79639;BME280;69114;49.108;8.280;2024-02-26T11:53:28;98644.97;;;14.50;100.00
79639;BME280;69114;49.108;8.280;2024-02-26T11:58:43;98657.13;;;13.58;100.00
79639;BME280;69114;49.108;8.280;2024-02-26T12:01:45;98673.28;;;13.92;100.00
79639;BME280;69114;49.108;8.280;2024-02-26T12:04:19;98657.19;;;14.12;100.00
79639;BME280;69114;49.108;8.280;2024-02-26T12:06:50;98661.59;;;14.96;96.82
79639;BME280;69114;49.108;8.280;2024-02-26T12:09:35;98660.78;;;15.70;94.30
79639;BME280;69114;49.108;8.280;2024-02-26T12:12:09;98655.94;;;15.29;96.44
79639;BME280;69114;49.108;8.280;2024-02-26T12:14:50;98660.72;;;15.66;93.24
79639;BME280;69114;49.108;8.280;2024-02-26T12:17:20;98659.25;;;15.79;88.63
79639;BME280;69114;49.108;8.280;2024-02-26T12:19:45;98665.13;;;15.26;93.71
79639;BME280;69114;49.108;8.280;2024-02-26T12:22:13;98665.88;;;15.23;95.94
79639;BME280;69114;49.108;8.280;2024-02-26T12:24:39;98660.31;;;14.59;99.35
79639;BME280;69114;49.108;8.280;2024-02-26T12:27:05;98666.88;;;14.44;96.37
79639;BME280;69114;49.108;8.280;2024-02-26T12:29:31;98656.38;;;14.64;97.27
79639;BME280;69114;49.108;8.280;2024-02-26T12:31:56;98654.66;;;14.86;97.22
79639;BME280;69114;49.108;8.280;2024-02-26T12:34:22;98662.66;;;15.21;92.08
79639;BME280;69114;49.108;8.280;2024-02-26T12:36:48;98667.13;;;14.92;94.89
79639;BME280;69114;49.108;8.280;2024-02-26T12:39:14;98668.84;;;14.70;97.60
79639;BME280;69114;49.108;8.280;2024-02-26T12:41:40;98662.78;;;14.38;99.61
79639;BME280;69114;49.108;8.280;2024-02-26T12:44:05;98664.31;;;14.58;93.35
79639;BME280;69114;49.108;8.280;2024-02-26T12:46:32;98663.66;;;15.02;92.44
79639;BME280;69114;49.108;8.280;2024-02-26T12:48:58;98670.47;;;15.79;86.90
79639;BME280;69114;49.108;8.280;2024-02-26T12:51:25;98671.81;;;16.51;88.06
79639;BME280;69114;49.108;8.280;2024-02-26T12:53:51;98669.75;;;17.21;76.50
79639;BME280;69114;49.108;8.280;2024-02-26T12:56:17;98664.19;;;17.60;77.83
79639;BME280;69114;49.108;8.280;2024-02-26T12:58:44;98673.06;;;16.57;83.62
79639;BME280;69114;49.108;8.280;2024-02-26T13:01:15;98673.41;;;16.49;81.50
79639;BME280;69114;49.108;8.280;2024-02-26T13:03:42;98674.59;;;15.93;79.07
79639;BME280;69114;49.108;8.280;2024-02-26T13:06:08;98670.81;;;15.33;81.57